Domov               UVHVVR             MKGP            O straneh              
ZDRAVSTVENO VARSTVO RASTLIN
  MREŽA AGROMET. POSTAJ
 ► PROGNOSTIČNA OBVESTILA
AGROMETEOROLOŠKI PODATKI -
ARSO
OBVLADOVANJE TVEGANJ ZARADI
NEUGODNIH VREMENSKIH RAZMER
  ► NARAVNE NESREČE
  ► SUŠA/MOČA
  ► NAMAKANJE
  ► ŽLED (gozdarstvo)
KARTOGRAFSKI PRIKAZI
SPLETNE POVEZAVE
PROJEKTI IN PUBLIKACIJE

AGROMETEOROLOŠKA MREŽA: VREMENSKE POSTAJE IN FENOLOŠKA OPAZOVANJA

Pregled podatkov za lokacijo Sebeborci, meteorološka postaja 25165

Pregled senzorjev na lokaciji

ID Ime Zadnja
vrednost
Datum
zadnje
spremembe
Tip
senzorja
2012 Padavine 0.2 mm (mm) 0 mm 17.10.2017 14:29 Generic 0.2 mm
2013 Omočenost lista (U) 0 U 17.10.2017 14:30 A730WET
2014 Relativna vlaga 2 m (% RH) 45,59 % RH 17.10.2017 14:30 Generic 0 - 100 %
2015 Temperatura 2 m ( °C) 23 °C 17.10.2017 14:30 Generic -40 - +60 °C

Pregled podatkov zadnjih 24 ur

Zap.
št.
Datum in čas Sebeborci
Omočenost
lista
Padavine
0.2
mm
Relativna
vlaga
2
m
Temperatura
2
m
0 17.10.2017 13:30 0 0 45,59 23
1 17.10.2017 13:00 0 0 45,98 22,44
2 17.10.2017 12:30 0 0 51,16 21,93
3 17.10.2017 12:00 0 0 54,11 20,83
4 17.10.2017 11:30 0 0 59,32 19,95
5 17.10.2017 11:00 0 0 61,2 19,15
6 17.10.2017 10:30 0 0 64,93 18,22
7 17.10.2017 10:00 0 0 67,42 16,9
8 17.10.2017 09:30 0 0 68,06 16,17
9 17.10.2017 09:00 0 0 67,35 15,26
10 17.10.2017 08:30 2 0 74,14 12,45
11 17.10.2017 08:00 10 0 99,93 9,04
12 17.10.2017 07:30 10 0 99,93 7,77
13 17.10.2017 07:00 10 0 99,93 7,03
14 17.10.2017 06:30 8 0 99,93 6,98
15 17.10.2017 06:00 6 0 99,93 7,23
16 17.10.2017 05:30 4 0 99,93 7,18
17 17.10.2017 05:00 3 0 99,93 7,52
18 17.10.2017 04:30 3 0 99,93 7,74
19 17.10.2017 04:00 2 0 99,93 7,89
20 17.10.2017 03:30 2 0 99,93 8,89
21 17.10.2017 03:00 1 0 99,93 9,06
22 17.10.2017 02:30 1 0 99,93 8,82
23 17.10.2017 02:00 0 0 99,93 9,84
24 17.10.2017 01:30 0 0 99,93 10,01
25 17.10.2017 01:00 0 0 93,02 10,5
26 17.10.2017 00:30 0 0 87,91 11,23
27 17.10.2017 00:00 0 0 80,85 11,62
28 16.10.2017 23:30 0 0 79,63 11,94
29 16.10.2017 23:00 0 0 77,95 12,33
30 16.10.2017 22:30 0 0 75,16 13,55
31 16.10.2017 22:00 0 0 68,72 14,41
32 16.10.2017 21:30 0 0 67,74 14,77
33 16.10.2017 21:00 0 0 67,81 14,99
34 16.10.2017 20:30 0 0 66,89 15,53
35 16.10.2017 20:00 0 0 66,72 15,9
36 16.10.2017 19:30 0 0 67,28 16,04
37 16.10.2017 19:00 0 0 68,25 16,29
38 16.10.2017 18:30 0 0 65,69 17,02
39 16.10.2017 18:00 0 0 64,25 17,39
40 16.10.2017 17:30 0 0 61,93 17,97
41 16.10.2017 17:00 0 0 60,85 19,46
42 16.10.2017 16:30 0 0 55,51 21,07
43 16.10.2017 16:00 0 0 50,84 22,03
44 16.10.2017 15:30 0 0 50,09 22,56
© 2011 Ministrstvo za kmetijstvo, gozdarstvo in prehrano. Vse pravice pridržane.